createdAt,value
2022-12-26T00:01:25.105Z,6.20
2022-12-26T00:03:53.939Z,6.20
2022-12-26T00:06:24.484Z,6.19
2022-12-26T00:08:52.988Z,6.18
2022-12-26T00:11:21.318Z,6.20
2022-12-26T00:13:49.028Z,6.18
2022-12-26T00:16:19.444Z,6.11
2022-12-26T00:18:48.138Z,6.10
2022-12-26T00:21:17.558Z,6.08
2022-12-26T00:23:45.708Z,6.02
2022-12-26T00:26:20.381Z,5.94
2022-12-26T00:28:48.698Z,5.94
2022-12-26T00:31:20.256Z,5.92
2022-12-26T00:33:48.768Z,5.84
2022-12-26T00:36:19.307Z,5.79
2022-12-26T00:38:47.907Z,5.76
2022-12-26T00:41:17.117Z,5.76
2022-12-26T00:43:44.883Z,5.75
2022-12-26T00:46:12.645Z,5.73
2022-12-26T00:48:40.351Z,5.77
2022-12-26T00:51:08.387Z,5.78
2022-12-26T00:53:36.419Z,5.78
2022-12-26T00:56:04.822Z,5.72
2022-12-26T00:58:32.494Z,5.67
2022-12-26T01:01:16.996Z,5.65
2022-12-26T01:03:46.040Z,5.68
2022-12-26T01:06:13.971Z,5.74
2022-12-26T01:08:42.167Z,5.74
2022-12-26T01:11:13.328Z,5.76
2022-12-26T01:13:41.065Z,5.76
2022-12-26T01:16:09.349Z,5.76
2022-12-26T01:18:37.205Z,5.76
2022-12-26T01:21:08.844Z,5.78
2022-12-26T01:23:36.874Z,5.79
2022-12-26T01:26:19.170Z,5.78
2022-12-26T01:28:49.931Z,5.81
2022-12-26T01:31:18.621Z,5.81
2022-12-26T01:33:46.607Z,5.85
2022-12-26T01:36:14.768Z,5.85
2022-12-26T01:38:42.469Z,5.85
2022-12-26T01:41:20.989Z,5.89
2022-12-26T01:44:02.576Z,5.91
2022-12-26T01:46:40.004Z,5.91
2022-12-26T01:49:15.037Z,5.91
2022-12-26T01:51:46.257Z,5.97
2022-12-26T01:54:39.736Z,6.00
2022-12-26T01:57:07.833Z,6.02
2022-12-26T01:59:38.023Z,5.96
2022-12-26T02:02:06.691Z,5.96
2022-12-26T02:04:58.906Z,5.86
2022-12-26T02:07:27.860Z,5.85
2022-12-26T02:09:56.002Z,5.86
2022-12-26T02:12:36.140Z,5.87
2022-12-26T02:15:11.267Z,5.87
2022-12-26T02:17:40.457Z,5.87
2022-12-26T02:20:08.532Z,5.83
2022-12-26T02:22:47.398Z,5.84
2022-12-26T02:25:15.004Z,5.79
2022-12-26T02:27:49.243Z,5.80
2022-12-26T02:30:53.420Z,5.77
2022-12-26T02:33:39.851Z,5.76
2022-12-26T02:36:31.891Z,5.71
2022-12-26T02:39:45.587Z,5.64
2022-12-26T02:42:25.645Z,5.60
2022-12-26T02:45:25.015Z,5.56
2022-12-26T02:48:13.529Z,5.54
2022-12-26T02:51:23.344Z,5.47
2022-12-26T02:54:20.490Z,5.38
2022-12-26T02:57:12.926Z,5.28
2022-12-26T03:00:14.079Z,5.20
2022-12-26T03:03:07.018Z,5.16
2022-12-26T03:05:58.560Z,5.12
2022-12-26T03:08:55.128Z,5.05
2022-12-26T03:11:49.927Z,5.05
2022-12-26T03:14:22.366Z,5.03
2022-12-26T03:17:15.448Z,5.01
2022-12-26T03:20:00.430Z,4.98
2022-12-26T03:22:43.576Z,5.02
2022-12-26T03:25:40.016Z,5.02
2022-12-26T03:28:07.785Z,5.01
2022-12-26T03:30:51.113Z,5.02
2022-12-26T03:33:49.333Z,5.02
2022-12-26T03:36:51.286Z,5.06
2022-12-26T03:40:23.500Z,5.12
2022-12-26T03:43:35.198Z,5.15
2022-12-26T03:46:35.654Z,5.12
2022-12-26T03:49:36.290Z,5.11
2022-12-26T03:52:44.254Z,5.10
2022-12-26T03:55:38.876Z,5.10
2022-12-26T03:58:42.741Z,5.10
2022-12-26T04:01:35.887Z,5.06
2022-12-26T04:04:25.303Z,5.02
2022-12-26T04:07:17.974Z,4.96
2022-12-26T04:10:19.717Z,4.93
2022-12-26T04:13:09.056Z,4.93
2022-12-26T04:16:10.049Z,4.92
2022-12-26T04:19:04.963Z,4.86
2022-12-26T04:21:55.294Z,4.86
2022-12-26T04:24:48.778Z,4.84
2022-12-26T04:27:38.877Z,4.80
2022-12-26T04:30:25.745Z,4.83
2022-12-26T04:33:17.031Z,4.79
2022-12-26T04:36:15.507Z,4.73
2022-12-26T04:39:07.480Z,4.69
2022-12-26T04:41:54.969Z,4.65
2022-12-26T04:44:26.606Z,4.56
2022-12-26T04:46:57.185Z,4.55
2022-12-26T04:49:43.822Z,4.51
2022-12-26T04:52:14.778Z,4.48
2022-12-26T04:54:43.344Z,4.45
2022-12-26T04:57:12.700Z,4.37
2022-12-26T04:59:40.404Z,4.38
2022-12-26T05:02:26.712Z,4.31
2022-12-26T05:05:13.070Z,4.30
2022-12-26T05:07:59.584Z,4.27
2022-12-26T05:10:29.099Z,4.28
2022-12-26T05:12:57.179Z,4.31
2022-12-26T05:15:25.374Z,4.32
2022-12-26T05:18:11.604Z,4.29
2022-12-26T05:20:59.675Z,4.32
2022-12-26T05:23:48.099Z,4.31
2022-12-26T05:26:38.734Z,4.33
2022-12-26T05:29:06.619Z,4.30
2022-12-26T05:31:36.629Z,4.30
2022-12-26T05:34:13.880Z,4.30
2022-12-26T05:37:00.381Z,4.28
2022-12-26T05:39:28.038Z,4.22
2022-12-26T05:41:55.915Z,4.22
2022-12-26T05:44:23.681Z,4.19
2022-12-26T05:46:51.425Z,4.12
2022-12-26T05:49:19.142Z,4.10
2022-12-26T05:51:46.796Z,4.08
2022-12-26T05:54:14.496Z,4.02
2022-12-26T05:56:49.023Z,3.97
2022-12-26T05:59:16.990Z,3.88
2022-12-26T06:01:44.799Z,3.86
2022-12-26T06:04:12.613Z,3.84
2022-12-26T06:06:40.238Z,3.81
2022-12-26T06:09:07.912Z,3.82
2022-12-26T06:11:35.626Z,3.84
2022-12-26T06:14:03.306Z,3.84
2022-12-26T06:16:30.975Z,3.81
2022-12-26T06:18:58.674Z,3.82
2022-12-26T06:21:26.557Z,3.82
2022-12-26T06:23:54.357Z,3.83
2022-12-26T06:26:22.307Z,3.84
2022-12-26T06:28:49.960Z,3.87
2022-12-26T06:31:22.485Z,3.90
2022-12-26T06:33:52.401Z,3.89
2022-12-26T06:36:23.036Z,3.90
2022-12-26T06:38:51.446Z,3.88
2022-12-26T06:41:20.909Z,3.90
2022-12-26T06:43:49.156Z,3.89
2022-12-26T06:46:20.031Z,3.90
2022-12-26T06:48:48.111Z,3.90
2022-12-26T06:51:18.565Z,3.94
2022-12-26T06:53:46.753Z,3.94
2022-12-26T06:56:20.537Z,3.99
2022-12-26T06:58:48.611Z,3.99
2022-12-26T07:01:19.352Z,4.01
2022-12-26T07:03:51.594Z,4.03
2022-12-26T07:06:27.541Z,4.10
2022-12-26T07:09:01.391Z,4.13
2022-12-26T07:11:32.684Z,4.16
2022-12-26T07:14:00.893Z,4.17
2022-12-26T07:16:29.261Z,4.18
2022-12-26T07:18:58.524Z,4.19
2022-12-26T07:21:27.436Z,4.17
2022-12-26T07:23:56.246Z,4.16
2022-12-26T07:26:25.433Z,4.17
2022-12-26T07:28:57.384Z,4.20
2022-12-26T07:31:26.079Z,4.22
2022-12-26T07:33:56.311Z,4.24
2022-12-26T07:36:26.139Z,4.30
2022-12-26T07:38:53.896Z,4.35
2022-12-26T07:41:40.187Z,4.39
2022-12-26T07:44:08.245Z,4.40
2022-12-26T07:46:36.061Z,4.40
2022-12-26T07:49:04.779Z,4.40
2022-12-26T07:51:32.643Z,4.39
2022-12-26T07:54:02.300Z,4.38
2022-12-26T07:56:33.861Z,4.40
2022-12-26T07:59:01.833Z,4.38
2022-12-26T08:01:29.575Z,4.37
2022-12-26T08:03:57.503Z,4.40
2022-12-26T08:06:25.402Z,4.40
2022-12-26T08:08:53.546Z,4.42
2022-12-26T08:11:24.579Z,4.41
2022-12-26T08:13:53.506Z,4.44
2022-12-26T08:16:21.632Z,4.47
2022-12-26T08:18:49.398Z,4.50
2022-12-26T08:21:17.486Z,4.51
2022-12-26T08:23:45.409Z,4.53
2022-12-26T08:26:14.319Z,4.55
2022-12-26T08:28:42.060Z,4.57
2022-12-26T08:31:11.544Z,4.65
2022-12-26T08:33:39.393Z,4.66
2022-12-26T08:36:10.071Z,4.68
2022-12-26T08:38:38.552Z,4.71
2022-12-26T08:41:06.624Z,4.69
2022-12-26T08:44:03.624Z,4.73
2022-12-26T08:46:23.430Z,4.76
2022-12-26T08:48:51.934Z,4.79
2022-12-26T08:51:22.725Z,4.79
2022-12-26T08:53:51.945Z,4.80
2022-12-26T08:56:24.131Z,4.86
2022-12-26T08:58:52.125Z,4.93
2022-12-26T09:01:26.629Z,4.99
2022-12-26T09:03:59.438Z,5.06
2022-12-26T09:06:27.641Z,5.10
2022-12-26T09:08:55.540Z,5.14
2022-12-26T09:11:29.007Z,5.20
2022-12-26T09:13:58.680Z,5.26
2022-12-26T09:16:35.542Z,5.29
2022-12-26T09:19:06.629Z,5.33
2022-12-26T09:21:34.760Z,5.35
2022-12-26T09:24:05.051Z,5.40
2022-12-26T09:26:33.188Z,5.49
2022-12-26T09:29:01.020Z,5.52
2022-12-26T09:31:34.286Z,5.78
2022-12-26T09:34:06.643Z,6.20
2022-12-26T09:36:38.999Z,6.70
2022-12-26T09:39:07.488Z,7.00
2022-12-26T09:41:47.199Z,7.07
2022-12-26T09:44:39.320Z,7.16
2022-12-26T09:47:13.051Z,7.11
2022-12-26T09:49:53.280Z,7.03
2022-12-26T09:52:28.495Z,6.97
2022-12-26T09:55:01.968Z,6.96
2022-12-26T09:57:52.050Z,6.94
2022-12-26T10:00:29.227Z,6.85
2022-12-26T10:02:59.996Z,6.80
2022-12-26T10:05:35.759Z,6.79
2022-12-26T10:08:45.076Z,6.74
2022-12-26T10:11:39.164Z,6.60
2022-12-26T10:14:22.003Z,6.59
2022-12-26T10:17:17.013Z,6.59
2022-12-26T10:20:07.074Z,6.58
2022-12-26T10:23:04.107Z,6.60
2022-12-26T10:25:44.873Z,6.62
2022-12-26T10:28:29.353Z,6.68
2022-12-26T10:31:01.015Z,6.72
2022-12-26T10:33:43.632Z,6.79
2022-12-26T10:36:23.080Z,6.87
2022-12-26T10:38:53.639Z,6.92
2022-12-26T10:41:44.616Z,7.02
2022-12-26T10:44:17.019Z,7.14
2022-12-26T10:46:50.906Z,7.24
2022-12-26T10:49:22.053Z,7.35
2022-12-26T10:51:51.644Z,7.44
2022-12-26T10:54:21.283Z,7.57
2022-12-26T10:56:51.355Z,7.70
2022-12-26T10:59:23.462Z,7.84
2022-12-26T11:01:51.621Z,7.96
2022-12-26T11:07:12.493Z,8.17
2022-12-26T11:09:46.744Z,8.30
2022-12-26T11:12:23.055Z,8.38
2022-12-26T11:14:57.672Z,8.48
2022-12-26T11:17:31.898Z,8.58
2022-12-26T11:20:17.711Z,8.65
2022-12-26T11:22:47.059Z,8.74
2022-12-26T11:25:24.341Z,8.80
2022-12-26T11:27:55.823Z,8.86
2022-12-26T11:30:38.204Z,8.95
2022-12-26T11:33:44.188Z,8.98
2022-12-26T11:36:19.936Z,9.01
2022-12-26T11:38:56.438Z,9.03
2022-12-26T11:41:33.303Z,9.04
2022-12-26T11:44:22.635Z,9.04
2022-12-26T11:47:08.743Z,9.05
2022-12-26T11:49:39.433Z,9.08
2022-12-26T11:52:35.039Z,9.11
2022-12-26T11:55:03.191Z,9.13
2022-12-26T11:57:34.696Z,9.15
2022-12-26T12:00:23.206Z,9.15
2022-12-26T12:02:51.499Z,9.18
2022-12-26T12:05:41.049Z,9.23
2022-12-26T12:08:17.585Z,9.23
2022-12-26T12:10:52.332Z,9.27
2022-12-26T12:13:20.029Z,9.30
2022-12-26T12:16:32.307Z,9.32
2022-12-26T12:19:21.761Z,9.34
2022-12-26T12:22:04.360Z,9.39
2022-12-26T12:24:56.132Z,9.42
2022-12-26T12:27:49.730Z,9.47
2022-12-26T12:30:35.123Z,9.49
2022-12-26T12:33:19.585Z,9.54
2022-12-26T12:36:20.783Z,9.59
2022-12-26T12:38:57.449Z,9.58
2022-12-26T12:41:43.673Z,9.59
2022-12-26T12:44:16.373Z,9.58
2022-12-26T12:47:16.059Z,9.61
2022-12-26T12:50:25.129Z,9.64
2022-12-26T12:53:20.940Z,9.68
2022-12-26T12:55:57.968Z,9.72
2022-12-26T12:58:44.124Z,9.75
2022-12-26T13:01:17.107Z,9.73
2022-12-26T13:03:55.563Z,9.77
2022-12-26T13:06:30.617Z,9.78
2022-12-26T13:09:03.967Z,9.81
2022-12-26T13:11:37.505Z,9.82
2022-12-26T13:14:26.057Z,9.84
2022-12-26T13:17:02.533Z,9.81
2022-12-26T13:19:41.724Z,9.82
2022-12-26T13:22:28.934Z,9.83
2022-12-26T13:25:03.571Z,9.80
2022-12-26T13:27:39.197Z,9.79
2022-12-26T13:30:18.578Z,9.78
2022-12-26T13:32:47.021Z,9.76
2022-12-26T13:35:48.668Z,9.74
2022-12-26T13:38:16.723Z,9.69
2022-12-26T13:41:23.586Z,9.67
2022-12-26T13:44:21.636Z,9.67
2022-12-26T13:46:49.183Z,9.61
2022-12-26T13:49:38.401Z,9.61
2022-12-26T13:52:12.127Z,9.59
2022-12-26T13:55:08.671Z,9.56
2022-12-26T13:57:38.550Z,9.54
2022-12-26T14:00:15.469Z,9.41
2022-12-26T14:03:20.514Z,9.42
2022-12-26T14:06:15.191Z,9.40
2022-12-26T14:09:11.733Z,9.33
2022-12-26T14:12:30.525Z,9.31
2022-12-26T14:15:09.995Z,9.30
2022-12-26T14:18:09.598Z,9.29
2022-12-26T14:20:58.720Z,9.25
2022-12-26T14:24:06.895Z,9.25
2022-12-26T14:26:57.355Z,9.25
2022-12-26T14:30:01.399Z,9.25
2022-12-26T14:32:41.336Z,9.24
2022-12-26T14:35:33.203Z,9.24
2022-12-26T14:38:19.228Z,9.23
2022-12-26T14:41:01.260Z,9.22
2022-12-26T14:43:40.293Z,9.21
2022-12-26T14:46:33.662Z,9.20
2022-12-26T14:49:38.448Z,9.19
2022-12-26T14:52:24.840Z,9.18
2022-12-26T14:54:54.458Z,9.15
2022-12-26T14:57:46.863Z,9.15
2022-12-26T15:00:28.730Z,9.12
2022-12-26T15:02:59.219Z,9.12
2022-12-26T15:05:41.437Z,9.11
2022-12-26T15:08:44.428Z,9.06
2022-12-26T15:11:30.872Z,9.08
2022-12-26T15:14:11.971Z,9.05
2022-12-26T15:16:45.727Z,9.02
2022-12-26T15:19:34.803Z,9.00
2022-12-26T15:22:08.429Z,8.97
2022-12-26T15:28:01.806Z,8.89
2022-12-26T15:30:47.855Z,8.86
2022-12-26T15:33:36.368Z,8.76
2022-12-26T15:36:24.880Z,8.74
2022-12-26T15:39:30.134Z,8.70
2022-12-26T15:42:32.994Z,8.65
2022-12-26T15:45:20.531Z,8.61
2022-12-26T15:48:04.653Z,8.60
2022-12-26T15:51:13.650Z,8.58
2022-12-26T15:53:53.507Z,8.53
2022-12-26T15:56:52.369Z,8.51
2022-12-26T15:59:22.958Z,8.52
2022-12-26T16:01:54.400Z,8.55
2022-12-26T16:04:34.007Z,8.56
2022-12-26T16:07:09.567Z,8.57
2022-12-26T16:09:55.838Z,8.57
2022-12-26T16:12:28.719Z,8.58
2022-12-26T16:15:11.313Z,8.56
2022-12-26T16:17:40.499Z,8.58
2022-12-26T16:20:19.201Z,8.55
2022-12-26T16:22:50.178Z,8.52
2022-12-26T16:25:25.062Z,8.52
2022-12-26T16:27:57.621Z,8.51
2022-12-26T16:30:28.968Z,8.50
2022-12-26T16:32:57.203Z,8.50
2022-12-26T16:35:33.484Z,8.49
2022-12-26T16:38:03.716Z,8.48
2022-12-26T16:40:36.171Z,8.47
2022-12-26T16:43:28.151Z,8.46
2022-12-26T16:46:08.048Z,8.47
2022-12-26T16:48:37.845Z,8.47
2022-12-26T16:51:09.073Z,8.48
2022-12-26T16:53:36.631Z,8.50
2022-12-26T16:56:28.348Z,8.48
2022-12-26T16:59:17.833Z,8.48
2022-12-26T17:01:52.387Z,8.48
2022-12-26T17:04:25.346Z,8.47
2022-12-26T17:07:03.516Z,8.47
2022-12-26T17:09:39.501Z,8.48
2022-12-26T17:12:09.727Z,8.48
2022-12-26T17:14:43.895Z,8.47
2022-12-26T17:17:33.673Z,8.47
2022-12-26T17:20:23.985Z,8.49
2022-12-26T17:22:55.783Z,8.48
2022-12-26T17:25:31.476Z,8.47
2022-12-26T17:28:16.310Z,8.46
2022-12-26T17:30:46.519Z,8.46
2022-12-26T17:33:18.767Z,8.47
2022-12-26T17:38:47.129Z,8.46
2022-12-26T17:41:18.426Z,8.46
2022-12-26T17:43:47.777Z,8.47
2022-12-26T17:46:19.179Z,8.49
2022-12-26T17:48:47.061Z,8.49
2022-12-26T17:51:19.867Z,8.50
2022-12-26T17:53:52.444Z,8.52
2022-12-26T17:56:24.493Z,8.54
2022-12-26T17:58:52.223Z,8.50
2022-12-26T18:01:22.301Z,8.51
2022-12-26T18:03:50.945Z,8.50
2022-12-26T18:06:19.115Z,8.50
2022-12-26T18:08:46.976Z,8.52
2022-12-26T18:11:15.318Z,8.51
2022-12-26T18:13:44.136Z,8.51
2022-12-26T18:16:17.842Z,8.53
2022-12-26T18:18:47.441Z,8.52
2022-12-26T18:21:17.170Z,8.53
2022-12-26T18:23:45.516Z,8.55
2022-12-26T18:26:32.408Z,8.57
2022-12-26T18:29:00.544Z,8.60
2022-12-26T18:31:29.308Z,8.62
2022-12-26T18:33:57.174Z,8.64
2022-12-26T18:36:34.208Z,8.65
2022-12-26T18:39:02.248Z,8.68
2022-12-26T18:41:30.050Z,8.72
2022-12-26T18:43:59.272Z,8.73
2022-12-26T18:46:28.704Z,8.76
2022-12-26T18:48:57.832Z,8.80
2022-12-26T18:51:26.984Z,8.84
2022-12-26T18:53:55.328Z,8.89
2022-12-26T18:56:24.176Z,8.92
2022-12-26T18:58:57.871Z,8.95
2022-12-26T19:01:26.553Z,8.98
2022-12-26T19:03:55.100Z,9.01
2022-12-26T19:06:26.069Z,9.05
2022-12-26T19:08:53.965Z,9.08
2022-12-26T19:11:22.252Z,9.11
2022-12-26T19:13:50.150Z,9.14
2022-12-26T19:16:17.908Z,9.16
2022-12-26T19:18:45.855Z,9.17
2022-12-26T19:21:15.434Z,9.16
2022-12-26T19:23:47.485Z,9.19
2022-12-26T19:26:19.684Z,9.17
2022-12-26T19:28:55.919Z,9.17
2022-12-26T19:31:24.706Z,9.16
2022-12-26T19:33:52.469Z,9.17
2022-12-26T19:36:20.197Z,9.17
2022-12-26T19:38:47.839Z,9.17
2022-12-26T19:41:16.165Z,9.15
2022-12-26T19:43:44.148Z,9.16
2022-12-26T19:46:14.036Z,9.15
2022-12-26T19:48:42.152Z,9.15
2022-12-26T19:51:12.780Z,9.17
2022-12-26T19:53:41.684Z,9.14
2022-12-26T19:56:11.074Z,9.13
2022-12-26T19:58:39.458Z,9.12
2022-12-26T20:01:33.500Z,9.10
2022-12-26T20:04:04.001Z,9.08
2022-12-26T20:06:34.269Z,9.05
2022-12-26T20:09:04.964Z,9.03
2022-12-26T20:11:35.532Z,9.01
2022-12-26T20:14:04.848Z,8.97
2022-12-26T20:19:21.532Z,8.93
2022-12-26T20:21:49.481Z,8.90
2022-12-26T20:24:17.774Z,8.92
2022-12-26T20:26:45.608Z,8.91
2022-12-26T20:29:13.356Z,8.89
2022-12-26T20:31:41.498Z,8.86
2022-12-26T20:34:09.574Z,8.86
2022-12-26T20:36:38.503Z,8.84
2022-12-26T20:39:09.416Z,8.86
2022-12-26T20:41:37.442Z,8.88
2022-12-26T20:44:05.193Z,8.88
2022-12-26T20:46:34.670Z,8.90
2022-12-26T20:49:03.701Z,8.91
2022-12-26T20:51:37.706Z,8.87
2022-12-26T20:54:07.218Z,8.86
2022-12-26T20:56:36.052Z,8.85
2022-12-26T20:59:04.388Z,8.84
2022-12-26T21:01:32.256Z,8.76
2022-12-26T21:04:00.397Z,8.65
2022-12-26T21:06:37.165Z,8.55
2022-12-26T21:09:06.362Z,8.37
2022-12-26T21:11:39.091Z,8.24
2022-12-26T21:14:17.612Z,8.13
2022-12-26T21:16:54.523Z,7.96
2022-12-26T21:19:24.887Z,7.84
2022-12-26T21:21:55.044Z,7.80
2022-12-26T21:24:29.092Z,7.74
2022-12-26T21:26:57.182Z,7.73
2022-12-26T21:29:30.927Z,7.75
2022-12-26T21:31:59.216Z,7.74
2022-12-26T21:34:29.486Z,7.77
2022-12-26T21:37:16.978Z,7.81
2022-12-26T21:39:45.681Z,7.88
2022-12-26T21:42:13.358Z,7.92
2022-12-26T21:44:41.083Z,7.94
2022-12-26T21:47:11.764Z,7.96
2022-12-26T21:49:39.501Z,7.99
2022-12-26T21:52:08.107Z,7.99
2022-12-26T21:54:54.377Z,7.99
2022-12-26T21:57:23.048Z,8.02
2022-12-26T22:00:00.223Z,8.00
2022-12-26T22:02:54.900Z,8.02
2022-12-26T22:05:28.395Z,8.02
2022-12-26T22:07:58.831Z,8.04
2022-12-26T22:10:49.446Z,8.05
2022-12-26T22:13:17.528Z,8.02
2022-12-26T22:16:06.538Z,8.02
2022-12-26T22:18:40.835Z,7.99
2022-12-26T22:21:18.820Z,7.95
2022-12-26T22:23:46.844Z,7.94
2022-12-26T22:26:16.201Z,7.89
2022-12-26T22:28:44.773Z,7.92
2022-12-26T22:31:31.130Z,7.89
2022-12-26T22:34:13.091Z,7.89
2022-12-26T22:36:42.103Z,7.83
2022-12-26T22:39:14.119Z,7.84
2022-12-26T22:41:42.448Z,7.83
2022-12-26T22:44:10.257Z,7.82
2022-12-26T22:46:38.098Z,7.79
2022-12-26T22:49:05.990Z,7.78
2022-12-26T22:51:34.022Z,7.75
2022-12-26T22:54:02.701Z,7.74
2022-12-26T22:56:31.187Z,7.72
2022-12-26T22:59:04.377Z,7.77
2022-12-26T23:01:32.160Z,7.75
2022-12-26T23:04:02.001Z,7.75
2022-12-26T23:06:32.356Z,7.75
2022-12-26T23:09:02.491Z,7.77
2022-12-26T23:11:35.298Z,7.79
2022-12-26T23:14:08.921Z,7.82
2022-12-26T23:16:53.623Z,7.85
2022-12-26T23:19:52.893Z,7.86
2022-12-26T23:22:20.887Z,7.87
2022-12-26T23:24:48.726Z,7.90
2022-12-26T23:27:34.930Z,7.92
2022-12-26T23:30:21.299Z,7.92
2022-12-26T23:32:53.605Z,7.95
2022-12-26T23:35:22.569Z,7.94
2022-12-26T23:37:50.889Z,7.96
2022-12-26T23:40:20.292Z,7.95
2022-12-26T23:42:48.335Z,7.93
2022-12-26T23:45:17.307Z,7.89
2022-12-26T23:47:47.052Z,7.88
2022-12-26T23:50:16.612Z,7.86
2022-12-26T23:52:45.038Z,7.86
2022-12-26T23:55:13.280Z,7.86
2022-12-26T23:57:41.029Z,7.85
